Time;durP1;ratioP1;P1;durP2;ratioP2;P2;SDS_P1;SDS_P2;PMS_P1;PMS_P2;Temp;Humidity;BMP_temperature;BMP_pressure;BME280_temperature;BME280_humidity;BME280_pressure;Samples;Min_cycle;Max_cycle;Signal;HPM_P1;HPM_P2
2022/12/31 00:01:32;;;;;;;5.03;4.53;;;9.50;99.90;;;;;;5074671;28;20274;-93
2022/12/31 00:03:59;;;;;;;5.13;4.63;;;9.40;99.90;;;;;;5061245;28;20238;-92
2022/12/31 00:06:30;;;;;;;6.60;5.00;;;9.40;99.90;;;;;;5060459;28;20813;-92
2022/12/31 00:08:59;;;;;;;5.27;4.80;;;9.40;99.90;;;;;;5062445;28;20244;-92
2022/12/31 00:11:29;;;;;;;5.77;5.00;;;9.50;99.90;;;;;;5059726;28;20249;-92
2022/12/31 00:13:56;;;;;;;5.30;4.90;;;9.40;99.90;;;;;;5077642;28;20712;-93
2022/12/31 00:16:25;;;;;;;5.73;5.10;;;9.40;99.90;;;;;;5062049;28;20226;-92
2022/12/31 00:18:55;;;;;;;5.87;4.80;;;9.40;99.90;;;;;;5064238;28;20762;-92
2022/12/31 00:21:22;;;;;;;5.77;5.27;;;9.50;99.90;;;;;;5066234;28;20295;-93
2022/12/31 00:23:49;;;;;;;5.23;4.70;;;9.60;99.90;;;;;;5066114;28;20593;-93
2022/12/31 00:26:17;;;;;;;6.13;5.30;;;9.60;99.90;;;;;;5061196;28;20215;-92
2022/12/31 00:28:45;;;;;;;5.63;5.17;;;9.60;99.90;;;;;;5064688;28;20327;-94
2022/12/31 00:31:14;;;;;;;5.50;5.00;;;9.60;99.90;;;;;;5066624;28;20217;-92
2022/12/31 00:33:42;;;;;;;5.67;5.07;;;9.70;99.90;;;;;;5062113;28;20374;-92
2022/12/31 00:36:11;;;;;;;5.77;5.27;;;9.70;99.90;;;;;;5063947;28;20229;-94
2022/12/31 00:38:39;;;;;;;5.87;5.27;;;9.80;99.90;;;;;;5067276;28;20602;-93
2022/12/31 00:41:07;;;;;;;5.30;4.80;;;9.80;99.90;;;;;;5056332;28;20230;-92
2022/12/31 00:43:34;;;;;;;5.47;4.93;;;9.90;99.90;;;;;;5066283;28;20229;-92
2022/12/31 00:46:03;;;;;;;5.47;4.93;;;9.90;99.90;;;;;;5061381;28;20325;-93
2022/12/31 00:48:30;;;;;;;5.93;5.33;;;9.90;99.90;;;;;;5064754;28;20233;-92
2022/12/31 00:50:57;;;;;;;5.67;5.13;;;9.90;99.90;;;;;;5061700;28;20218;-93
2022/12/31 00:53:25;;;;;;;4.93;4.40;;;9.90;99.90;;;;;;5037937;28;20238;-92
2022/12/31 00:55:52;;;;;;;5.53;4.60;;;10.00;99.90;;;;;;5061893;28;20563;-93
2022/12/31 00:58:19;;;;;;;5.50;4.60;;;10.00;99.90;;;;;;5078940;28;20217;-93
2022/12/31 01:00:46;;;;;;;4.93;4.53;;;10.00;99.90;;;;;;5063888;28;20231;-92
2022/12/31 01:03:14;;;;;;;4.87;4.30;;;10.10;99.90;;;;;;5060971;28;20230;-92
2022/12/31 01:05:41;;;;;;;6.90;4.97;;;10.10;99.90;;;;;;5057032;28;20225;-92
2022/12/31 01:08:08;;;;;;;5.93;4.43;;;10.10;99.90;;;;;;5056587;28;20215;-92
2022/12/31 01:13:19;;;;;;;5.13;4.10;;;10.20;99.90;;;;;;5057043;28;20267;-92
2022/12/31 01:15:46;;;;;;;4.70;4.20;;;10.20;99.90;;;;;;5060790;28;20237;-93
2022/12/31 01:18:14;;;;;;;5.27;3.70;;;10.20;99.90;;;;;;5066773;28;20336;-92
2022/12/31 01:20:43;;;;;;;4.57;3.93;;;10.20;99.90;;;;;;5063310;28;20410;-92
2022/12/31 01:23:11;;;;;;;4.20;3.57;;;10.30;99.90;;;;;;5076810;28;20227;-92
2022/12/31 01:25:41;;;;;;;3.80;3.50;;;10.30;99.90;;;;;;5072387;28;20319;-92
2022/12/31 01:28:08;;;;;;;3.67;3.37;;;10.30;99.90;;;;;;5061820;28;20228;-93
2022/12/31 01:30:39;;;;;;;3.80;3.40;;;10.30;99.90;;;;;;5078730;28;20722;-93
2022/12/31 01:33:06;;;;;;;3.60;3.30;;;10.30;99.90;;;;;;5078869;28;20661;-93
2022/12/31 01:35:35;;;;;;;3.83;3.40;;;10.30;99.90;;;;;;5066526;28;20237;-92
2022/12/31 01:38:02;;;;;;;5.27;3.57;;;10.30;99.90;;;;;;5065249;28;20226;-92
2022/12/31 01:40:29;;;;;;;4.57;3.90;;;10.30;99.90;;;;;;5064505;28;20777;-92
2022/12/31 01:42:58;;;;;;;4.50;3.10;;;10.30;99.90;;;;;;5071035;28;20226;-93
2022/12/31 01:45:26;;;;;;;4.97;3.63;;;10.30;99.90;;;;;;5063217;28;20230;-94
2022/12/31 01:47:56;;;;;;;7.03;3.33;;;10.40;99.90;;;;;;5052787;28;20262;-92
2022/12/31 01:50:27;;;;;;;3.67;3.27;;;10.40;99.90;;;;;;5060553;28;20219;-92
2022/12/31 01:53:00;;;;;;;4.83;3.50;;;10.40;99.90;;;;;;5066860;28;20283;-92
2022/12/31 01:55:31;;;;;;;4.17;3.77;;;10.40;99.90;;;;;;5068187;28;20330;-92
2022/12/31 01:58:03;;;;;;;4.67;3.60;;;10.40;99.90;;;;;;5069256;28;20216;-92
2022/12/31 02:00:31;;;;;;;4.47;3.40;;;10.50;99.90;;;;;;5064617;28;20230;-93
2022/12/31 02:02:58;;;;;;;4.00;3.60;;;10.50;99.90;;;;;;5078216;28;20317;-92
2022/12/31 02:05:30;;;;;;;4.40;3.90;;;10.50;99.90;;;;;;5079231;28;20250;-92
2022/12/31 02:07:59;;;;;;;4.20;3.50;;;10.50;99.90;;;;;;5060712;28;20247;-92
2022/12/31 02:10:26;;;;;;;3.67;3.30;;;10.50;99.90;;;;;;5063785;28;20223;-94
2022/12/31 02:12:53;;;;;;;5.37;3.40;;;10.50;99.90;;;;;;5063997;28;20497;-92
2022/12/31 02:15:24;;;;;;;3.90;2.87;;;10.60;99.90;;;;;;5065920;28;20220;-92
2022/12/31 02:17:58;;;;;;;4.60;3.60;;;10.60;99.90;;;;;;5077815;28;20252;-94
2022/12/31 02:21:03;;;;;;;3.70;2.87;;;10.60;99.90;;;;;;5062134;28;20307;-91
2022/12/31 02:24:00;;;;;;;4.47;3.20;;;10.60;99.90;;;;;;5078675;28;20728;-93
2022/12/31 02:26:49;;;;;;;4.13;3.23;;;10.60;99.90;;;;;;5059910;28;20230;-92
2022/12/31 02:29:37;;;;;;;3.10;2.67;;;10.60;99.90;;;;;;5056004;28;20247;-92
2022/12/31 02:32:13;;;;;;;3.40;2.87;;;10.60;99.90;;;;;;5054162;28;20224;-93
2022/12/31 02:34:47;;;;;;;3.80;3.13;;;10.70;99.90;;;;;;5059731;28;20299;-91
2022/12/31 02:37:17;;;;;;;4.63;3.07;;;10.70;99.90;;;;;;5062832;28;20223;-92
2022/12/31 02:39:44;;;;;;;5.57;2.60;;;10.70;99.90;;;;;;5058679;28;20807;-93
2022/12/31 02:42:11;;;;;;;3.67;2.97;;;10.70;99.90;;;;;;5061094;28;20221;-92
2022/12/31 02:44:40;;;;;;;4.20;2.70;;;10.70;99.90;;;;;;5052189;28;20307;-93
2022/12/31 02:47:24;;;;;;;3.40;3.10;;;10.70;99.90;;;;;;5064588;28;20223;-93
2022/12/31 02:50:05;;;;;;;3.30;3.00;;;10.70;99.90;;;;;;5061851;28;20305;-93
2022/12/31 02:52:46;;;;;;;3.23;2.97;;;10.80;99.90;;;;;;5076836;28;20313;-95
2022/12/31 02:55:22;;;;;;;4.17;3.17;;;10.80;99.90;;;;;;5061563;28;20208;-94
2022/12/31 02:57:55;;;;;;;4.83;3.07;;;10.70;99.90;;;;;;5062258;28;20331;-96
2022/12/31 03:03:14;;;;;;;3.13;2.80;;;10.70;99.90;;;;;;5077153;28;20699;-94
2022/12/31 03:05:43;;;;;;;3.20;2.90;;;10.70;99.90;;;;;;5064386;28;20666;-95
2022/12/31 03:08:10;;;;;;;4.43;2.90;;;10.70;99.90;;;;;;5061126;28;20225;-95
2022/12/31 03:10:37;;;;;;;5.20;3.57;;;10.70;99.90;;;;;;5062666;28;20234;-93
2022/12/31 03:13:03;;;;;;;4.33;3.90;;;10.60;99.90;;;;;;5060519;28;20231;-94
2022/12/31 03:15:32;;;;;;;8.93;4.23;;;10.70;99.90;;;;;;5080502;28;20650;-96
2022/12/31 03:18:01;;;;;;;5.10;4.20;;;10.60;99.90;;;;;;5063391;28;20314;-94
2022/12/31 03:23:23;;;;;;;4.83;4.40;;;10.60;99.90;;;;;;5061524;28;20231;-94
2022/12/31 03:25:49;;;;;;;8.17;4.33;;;10.60;99.90;;;;;;5063271;28;20272;-93
2022/12/31 03:28:19;;;;;;;5.07;4.57;;;10.50;99.90;;;;;;5068772;28;20786;-94
2022/12/31 03:30:52;;;;;;;8.17;4.20;;;10.50;99.90;;;;;;5087076;28;20684;-95
2022/12/31 03:33:20;;;;;;;4.50;4.00;;;10.50;99.90;;;;;;5067188;28;20239;-95
2022/12/31 03:35:50;;;;;;;5.97;4.30;;;10.60;99.90;;;;;;5063237;28;20226;-94
2022/12/31 03:38:18;;;;;;;4.93;4.30;;;10.50;99.90;;;;;;5082541;28;20223;-95
2022/12/31 03:40:50;;;;;;;5.80;4.10;;;10.50;99.90;;;;;;5068065;28;20227;-94
2022/12/31 03:43:19;;;;;;;4.43;2.90;;;10.50;99.90;;;;;;5062210;28;20227;-95
2022/12/31 03:45:50;;;;;;;2.80;2.50;;;10.50;99.90;;;;;;5068110;28;20261;-95
2022/12/31 03:48:18;;;;;;;4.07;2.80;;;10.40;99.90;;;;;;5063255;28;20218;-94
2022/12/31 03:50:45;;;;;;;3.27;2.40;;;10.40;99.90;;;;;;5066134;28;20227;-94
2022/12/31 03:53:14;;;;;;;3.57;2.73;;;10.40;99.90;;;;;;5064775;28;20231;-92
2022/12/31 03:55:41;;;;;;;3.03;2.73;;;10.40;99.90;;;;;;5063562;28;20227;-94
2022/12/31 03:58:07;;;;;;;6.27;2.53;;;10.30;99.90;;;;;;5067367;28;20309;-94
2022/12/31 04:00:34;;;;;;;3.43;2.23;;;10.30;99.90;;;;;;5063489;28;20230;-93
2022/12/31 04:03:01;;;;;;;2.63;2.20;;;10.30;99.90;;;;;;5060205;28;20315;-94
2022/12/31 04:05:28;;;;;;;3.10;2.47;;;10.30;99.90;;;;;;5060974;28;20257;-94
2022/12/31 04:07:55;;;;;;;2.33;2.13;;;10.30;99.90;;;;;;5065676;28;20313;-94
2022/12/31 04:10:24;;;;;;;3.57;2.20;;;10.30;99.90;;;;;;5067174;28;20223;-95
2022/12/31 04:12:51;;;;;;;2.37;2.17;;;10.30;99.90;;;;;;5066926;28;20222;-94
2022/12/31 04:15:19;;;;;;;2.30;1.87;;;10.30;99.90;;;;;;5064594;28;20222;-94
2022/12/31 04:17:47;;;;;;;3.13;2.50;;;10.30;99.90;;;;;;5061223;28;20232;-93
2022/12/31 04:20:14;;;;;;;4.40;2.30;;;10.30;99.90;;;;;;5055012;28;20220;-95
2022/12/31 04:22:41;;;;;;;2.47;2.27;;;10.20;99.90;;;;;;5064608;28;20223;-93
2022/12/31 04:25:10;;;;;;;2.83;2.40;;;10.20;99.90;;;;;;5064197;28;20218;-94
2022/12/31 04:27:39;;;;;;;3.30;2.50;;;10.30;99.90;;;;;;5065318;28;20236;-94
2022/12/31 04:30:10;;;;;;;4.63;2.80;;;10.20;99.90;;;;;;5065032;28;20278;-94
2022/12/31 04:32:40;;;;;;;3.53;2.70;;;10.20;99.90;;;;;;5059185;28;20211;-93
2022/12/31 04:35:08;;;;;;;3.23;2.70;;;10.30;99.90;;;;;;5065709;28;20818;-95
2022/12/31 04:37:37;;;;;;;4.27;3.20;;;10.20;99.90;;;;;;5076813;28;20249;-93
2022/12/31 04:40:05;;;;;;;4.07;3.00;;;10.30;99.90;;;;;;5060775;28;20223;-93
2022/12/31 04:42:32;;;;;;;5.27;3.30;;;10.20;99.90;;;;;;5059819;28;20296;-96
2022/12/31 04:45:01;;;;;;;2.93;2.60;;;10.30;99.90;;;;;;5060637;28;20235;-94
2022/12/31 04:47:28;;;;;;;5.23;3.30;;;10.30;99.90;;;;;;5050130;28;20222;-94
2022/12/31 04:49:55;;;;;;;3.60;3.30;;;10.20;99.90;;;;;;5068768;28;20241;-95
2022/12/31 04:52:23;;;;;;;3.77;3.40;;;10.30;99.90;;;;;;5068562;28;20309;-95
2022/12/31 04:54:50;;;;;;;4.23;3.67;;;10.20;99.90;;;;;;5058439;28;20246;-94
2022/12/31 04:57:17;;;;;;;3.97;3.37;;;10.30;99.90;;;;;;5069160;28;20270;-93
2022/12/31 04:59:44;;;;;;;5.30;3.43;;;10.30;99.90;;;;;;5070465;28;20323;-95
2022/12/31 05:02:18;;;;;;;3.50;3.20;;;10.30;99.90;;;;;;5055916;28;20227;-93
2022/12/31 05:04:45;;;;;;;3.10;2.80;;;10.30;99.90;;;;;;5061010;28;20605;-94
2022/12/31 05:07:12;;;;;;;3.43;2.53;;;10.30;99.90;;;;;;5065983;28;20227;-94
2022/12/31 05:09:39;;;;;;;3.20;2.90;;;10.30;99.90;;;;;;5065704;28;20260;-92
2022/12/31 05:12:06;;;;;;;3.20;2.90;;;10.30;99.90;;;;;;5067052;28;20253;-92
2022/12/31 05:14:33;;;;;;;2.90;2.30;;;10.30;99.90;;;;;;5054962;28;20238;-90
2022/12/31 05:17:00;;;;;;;3.10;2.30;;;10.30;99.90;;;;;;5061551;28;20218;-92
2022/12/31 05:19:29;;;;;;;2.00;1.80;;;10.30;99.90;;;;;;5062489;28;20243;-91
2022/12/31 05:24:40;;;;;;;3.37;2.30;;;10.30;99.90;;;;;;5080220;28;20220;-91
2022/12/31 05:27:07;;;;;;;3.63;2.30;;;10.30;99.90;;;;;;5062557;28;20221;-93
2022/12/31 05:29:34;;;;;;;2.20;2.00;;;10.30;99.90;;;;;;5061454;28;20227;-94
2022/12/31 05:32:01;;;;;;;2.87;1.80;;;10.30;99.90;;;;;;5060102;28;20219;-94
2022/12/31 05:34:29;;;;;;;3.83;1.83;;;10.20;99.90;;;;;;5060073;28;20289;-94
2022/12/31 05:36:56;;;;;;;3.87;1.70;;;10.20;99.90;;;;;;5068435;28;20218;-94
2022/12/31 05:39:23;;;;;;;2.50;1.87;;;10.10;99.90;;;;;;5069081;28;20225;-94
2022/12/31 05:41:51;;;;;;;2.30;2.10;;;10.10;99.90;;;;;;5066827;28;20226;-95
2022/12/31 05:44:18;;;;;;;2.40;2.00;;;10.10;99.90;;;;;;5063788;28;20226;-95
2022/12/31 05:46:46;;;;;;;4.53;1.83;;;10.10;99.90;;;;;;5063475;28;20272;-94
2022/12/31 05:49:12;;;;;;;2.70;2.00;;;10.10;99.90;;;;;;5060634;28;20301;-94
2022/12/31 05:51:41;;;;;;;2.23;1.97;;;10.10;99.90;;;;;;5060612;28;20245;-93
2022/12/31 05:54:08;;;;;;;2.73;1.80;;;10.10;99.90;;;;;;5060700;28;20333;-90
2022/12/31 05:56:36;;;;;;;2.43;2.20;;;10.10;99.90;;;;;;5061844;28;20223;-90
2022/12/31 05:59:03;;;;;;;3.03;2.00;;;10.10;99.90;;;;;;5061288;28;20220;-90
2022/12/31 06:01:31;;;;;;;3.27;2.00;;;10.10;99.90;;;;;;5058644;28;20226;-90
2022/12/31 06:03:58;;;;;;;3.00;2.10;;;10.00;99.90;;;;;;5059256;28;20222;-91
2022/12/31 06:06:24;;;;;;;3.30;2.10;;;10.10;99.90;;;;;;5059515;28;20312;-91
2022/12/31 06:08:53;;;;;;;3.50;2.30;;;10.10;99.90;;;;;;5067040;28;20233;-91
2022/12/31 06:11:19;;;;;;;2.20;1.90;;;10.00;99.90;;;;;;5064086;28;20234;-91
2022/12/31 06:13:46;;;;;;;2.87;2.30;;;10.10;99.90;;;;;;5082253;28;20253;-91
2022/12/31 06:16:13;;;;;;;3.40;1.97;;;10.00;99.90;;;;;;5059793;28;20219;-91
2022/12/31 06:18:40;;;;;;;2.30;1.87;;;10.00;99.90;;;;;;5063548;28;20218;-91
2022/12/31 06:21:07;;;;;;;2.30;2.10;;;10.00;99.90;;;;;;5066520;28;20222;-91
2022/12/31 06:23:33;;;;;;;1.53;1.43;;;10.00;99.90;;;;;;5064265;28;20312;-91
2022/12/31 06:26:03;;;;;;;2.03;1.67;;;10.00;99.90;;;;;;5068863;28;20257;-91
2022/12/31 06:28:30;;;;;;;2.03;1.63;;;10.00;99.90;;;;;;5077666;28;20234;-90
2022/12/31 06:30:59;;;;;;;2.60;1.40;;;10.00;99.90;;;;;;5061842;28;20222;-90
2022/12/31 06:33:29;;;;;;;1.00;1.00;;;10.00;99.90;;;;;;5060967;28;20257;-92
2022/12/31 06:35:56;;;;;;;3.80;1.10;;;9.90;99.90;;;;;;5061918;28;20873;-91
2022/12/31 06:38:23;;;;;;;1.40;1.00;;;9.90;99.90;;;;;;5066768;28;20225;-91
2022/12/31 06:40:50;;;;;;;1.83;1.07;;;9.90;99.90;;;;;;5067072;28;20248;-90
2022/12/31 06:43:19;;;;;;;2.40;1.20;;;9.90;99.90;;;;;;5063027;28;20233;-92
2022/12/31 06:45:46;;;;;;;1.67;0.83;;;9.90;99.90;;;;;;5073538;28;20241;-94
2022/12/31 06:48:13;;;;;;;1.63;1.10;;;9.80;99.90;;;;;;5086959;28;20255;-96
2022/12/31 06:50:45;;;;;;;1.00;0.90;;;9.80;99.90;;;;;;5083351;28;20218;-95
2022/12/31 06:53:12;;;;;;;1.77;1.30;;;9.80;99.90;;;;;;5094376;28;20234;-95
2022/12/31 06:55:40;;;;;;;1.50;1.10;;;9.90;99.90;;;;;;5082809;28;20206;-94
2022/12/31 06:58:12;;;;;;;1.27;0.90;;;9.80;99.90;;;;;;5085898;28;20284;-95
2022/12/31 07:00:47;;;;;;;1.57;1.00;;;9.80;99.90;;;;;;5079282;28;20260;-94
2022/12/31 07:03:30;;;;;;;1.00;0.83;;;9.80;99.90;;;;;;5084026;28;20272;-96
2022/12/31 07:06:03;;;;;;;2.20;0.90;;;9.70;99.90;;;;;;5052060;23;20226;-83
2022/12/31 07:08:40;;;;;;;0.63;0.60;;;9.80;99.90;;;;;;5016462;28;20678;-83
2022/12/31 07:11:15;;;;;;;1.20;0.67;;;9.70;99.90;;;;;;5017086;28;20222;-83
2022/12/31 07:13:53;;;;;;;2.33;0.73;;;9.70;99.90;;;;;;5018543;28;20313;-83
2022/12/31 07:16:43;;;;;;;0.87;0.80;;;9.70;99.90;;;;;;5016750;28;20223;-83
2022/12/31 07:19:21;;;;;;;0.60;0.50;;;9.70;99.90;;;;;;5015147;28;20603;-83
2022/12/31 07:21:51;;;;;;;1.80;0.70;;;9.70;99.90;;;;;;5015209;28;20235;-82
2022/12/31 07:24:18;;;;;;;1.40;0.60;;;9.70;99.90;;;;;;5012201;28;20224;-82
2022/12/31 07:27:00;;;;;;;1.13;0.70;;;9.60;99.90;;;;;;5020094;28;20231;-83
2022/12/31 07:29:38;;;;;;;1.93;0.60;;;9.60;99.90;;;;;;5009159;28;20234;-83
2022/12/31 07:32:16;;;;;;;1.03;0.70;;;9.60;99.90;;;;;;5027217;28;20229;-82
2022/12/31 07:34:54;;;;;;;1.53;0.90;;;9.60;99.90;;;;;;5016926;28;20236;-82
2022/12/31 07:37:30;;;;;;;2.03;0.70;;;9.60;99.90;;;;;;5017327;28;20329;-83
2022/12/31 07:40:03;;;;;;;1.03;0.70;;;9.60;99.90;;;;;;5016686;28;20215;-83
2022/12/31 07:42:38;;;;;;;1.17;0.70;;;9.60;99.90;;;;;;5019290;28;20226;-83
2022/12/31 07:45:16;;;;;;;2.20;0.70;;;9.60;99.90;;;;;;5031159;28;20228;-83
2022/12/31 07:47:45;;;;;;;1.23;0.90;;;9.50;99.90;;;;;;5015192;28;20241;-83
2022/12/31 07:50:15;;;;;;;1.30;0.70;;;9.60;99.90;;;;;;5023562;28;20673;-84
2022/12/31 07:52:42;;;;;;;1.37;0.70;;;9.50;99.90;;;;;;5017468;28;20236;-84
2022/12/31 07:55:09;;;;;;;1.70;0.73;;;9.50;99.90;;;;;;5019345;28;20214;-83
2022/12/31 07:57:42;;;;;;;1.27;0.87;;;9.50;99.90;;;;;;5013234;28;20290;-82
2022/12/31 08:00:13;;;;;;;0.90;0.57;;;9.50;99.90;;;;;;5023741;28;20234;-82
2022/12/31 08:03:14;;;;;;;1.13;0.70;;;9.50;99.90;;;;;;5017795;28;20223;-81
2022/12/31 08:05:50;;;;;;;2.10;0.70;;;9.50;99.90;;;;;;4955827;28;20242;-82
2022/12/31 08:08:28;;;;;;;1.33;1.10;;;9.50;99.90;;;;;;5008239;28;20238;-82
2022/12/31 08:11:04;;;;;;;1.40;1.13;;;9.50;99.90;;;;;;5014080;28;20227;-82
2022/12/31 08:13:32;;;;;;;2.33;1.30;;;9.50;99.90;;;;;;5018446;28;20338;-82
2022/12/31 08:16:01;;;;;;;2.50;1.23;;;9.50;99.90;;;;;;5018360;28;20596;-82
2022/12/31 08:18:30;;;;;;;2.43;1.97;;;9.50;99.90;;;;;;5020480;28;20223;-83
2022/12/31 08:21:09;;;;;;;2.70;2.13;;;9.50;99.90;;;;;;5017487;28;20230;-82
2022/12/31 08:23:43;;;;;;;2.57;1.73;;;9.50;99.90;;;;;;5014827;28;20226;-82
2022/12/31 08:26:22;;;;;;;1.70;1.60;;;9.50;99.90;;;;;;5015764;28;20223;-82
2022/12/31 08:29:03;;;;;;;0.73;0.73;;;9.50;99.90;;;;;;5018990;28;20235;-82
2022/12/31 08:31:38;;;;;;;2.53;2.30;;;9.60;99.90;;;;;;5016753;28;20795;-84
2022/12/31 08:34:15;;;;;;;2.70;1.83;;;9.60;99.90;;;;;;5031379;28;20224;-82
2022/12/31 08:36:49;;;;;;;5.10;3.17;;;9.60;99.90;;;;;;5015978;28;20255;-84
2022/12/31 08:39:29;;;;;;;7.07;5.10;;;9.60;99.90;;;;;;5016795;28;20251;-82
2022/12/31 08:41:58;;;;;;;4.17;3.33;;;9.60;99.90;;;;;;5018016;28;20641;-82
2022/12/31 08:44:39;;;;;;;5.23;4.23;;;9.70;99.90;;;;;;5016391;28;20726;-83
2022/12/31 08:47:16;;;;;;;10.13;7.50;;;9.70;99.90;;;;;;5015874;28;20238;-83
2022/12/31 08:49:45;;;;;;;4.23;3.37;;;9.70;99.90;;;;;;5018889;28;20647;-87
2022/12/31 08:52:21;;;;;;;11.17;2.73;;;9.70;99.90;;;;;;5014240;28;20432;-86
2022/12/31 08:54:48;;;;;;;3.57;1.80;;;9.70;99.90;;;;;;5015057;28;20731;-86
2022/12/31 08:57:25;;;;;;;2.87;2.50;;;9.80;99.90;;;;;;5007514;28;20420;-86
2022/12/31 09:00:04;;;;;;;8.93;2.07;;;9.80;99.90;;;;;;5013917;28;20789;-86
2022/12/31 09:02:55;;;;;;;4.40;1.87;;;9.90;99.90;;;;;;5010718;28;20329;-85
2022/12/31 09:05:29;;;;;;;2.10;1.73;;;9.90;99.90;;;;;;5030094;28;20283;-86
2022/12/31 09:08:13;;;;;;;12.17;2.67;;;10.00;99.90;;;;;;5014293;28;20308;-85
2022/12/31 09:10:50;;;;;;;2.60;1.40;;;10.00;99.90;;;;;;5012517;28;20221;-85
2022/12/31 09:13:24;;;;;;;4.33;1.70;;;10.00;99.90;;;;;;5010974;28;20224;-85
2022/12/31 09:16:02;;;;;;;2.03;1.60;;;10.10;99.90;;;;;;5007238;28;20254;-86
2022/12/31 09:18:30;;;;;;;4.33;1.77;;;10.10;99.90;;;;;;5027602;28;20228;-86
2022/12/31 09:20:58;;;;;;;3.17;1.77;;;10.20;99.90;;;;;;5028972;28;20231;-86
2022/12/31 09:23:26;;;;;;;2.17;1.70;;;10.20;99.90;;;;;;5007605;28;20258;-86
2022/12/31 09:26:01;;;;;;;1.60;1.50;;;10.20;99.90;;;;;;5003434;28;20224;-83
2022/12/31 09:28:41;;;;;;;1.40;1.30;;;10.20;99.90;;;;;;5006793;28;20246;-84
2022/12/31 09:31:15;;;;;;;1.87;1.37;;;10.30;99.90;;;;;;5014428;28;20263;-84
2022/12/31 09:33:51;;;;;;;1.47;1.23;;;10.30;99.90;;;;;;5014987;28;20643;-83
2022/12/31 09:36:25;;;;;;;1.13;1.03;;;10.30;99.90;;;;;;5014768;28;20231;-84
2022/12/31 09:39:05;;;;;;;1.30;1.20;;;10.30;99.90;;;;;;5028548;28;20229;-84
2022/12/31 09:42:00;;;;;;;1.30;1.10;;;10.30;99.90;;;;;;5015465;28;20238;-84
2022/12/31 09:44:52;;;;;;;1.70;1.60;;;10.30;99.90;;;;;;5015588;28;20236;-84
2022/12/31 09:47:44;;;;;;;5.50;1.63;;;10.30;99.90;;;;;;4985785;28;20790;-86
2022/12/31 09:50:47;;;;;;;1.20;1.10;;;10.30;99.90;;;;;;5013090;28;20292;-85
2022/12/31 09:53:48;;;;;;;1.93;1.40;;;10.30;99.90;;;;;;5013698;28;20232;-85
2022/12/31 09:56:22;;;;;;;1.80;1.03;;;10.30;99.90;;;;;;5017683;28;20240;-85
2022/12/31 09:58:59;;;;;;;1.40;1.30;;;10.30;99.90;;;;;;5016611;28;20229;-85
2022/12/31 10:01:39;;;;;;;1.73;1.30;;;10.30;99.90;;;;;;5014650;28;20235;-85
2022/12/31 10:04:33;;;;;;;1.40;1.17;;;10.30;99.90;;;;;;5013101;28;20228;-85
2022/12/31 10:07:09;;;;;;;1.60;1.20;;;10.30;99.90;;;;;;4999007;28;20312;-85
2022/12/31 10:10:05;;;;;;;1.50;1.20;;;10.30;99.90;;;;;;5015917;28;20967;-85
2022/12/31 10:13:04;;;;;;;1.40;1.10;;;10.30;99.90;;;;;;5016170;28;20277;-86
2022/12/31 10:15:50;;;;;;;1.73;1.27;;;10.30;99.90;;;;;;5009377;28;20240;-85
2022/12/31 10:18:30;;;;;;;3.50;1.37;;;10.30;99.90;;;;;;4999441;28;20231;-86
2022/12/31 10:21:15;;;;;;;3.30;1.40;;;10.30;99.90;;;;;;5014323;28;20712;-85
2022/12/31 10:24:11;;;;;;;2.40;1.00;;;10.30;99.90;;;;;;5013772;28;20240;-86
2022/12/31 10:27:04;;;;;;;1.87;1.10;;;10.30;99.90;;;;;;5012988;28;20604;-85
2022/12/31 10:29:45;;;;;;;1.93;1.00;;;10.30;99.90;;;;;;5007225;28;20225;-85
2022/12/31 10:32:19;;;;;;;1.10;0.90;;;10.20;99.90;;;;;;5013134;28;20225;-86
2022/12/31 10:35:12;;;;;;;0.90;0.90;;;10.20;99.90;;;;;;5013876;28;20359;-79
2022/12/31 10:37:49;;;;;;;1.57;1.03;;;10.20;99.90;;;;;;5005500;28;20248;-80
2022/12/31 10:40:25;;;;;;;2.07;1.00;;;10.20;99.90;;;;;;5034254;28;20254;-80
2022/12/31 10:43:22;;;;;;;1.07;0.70;;;10.20;99.90;;;;;;5019809;28;20739;-80
2022/12/31 10:46:28;;;;;;;2.10;1.90;;;10.30;99.90;;;;;;5002760;28;20334;-80
2022/12/31 10:49:36;;;;;;;1.63;1.13;;;10.30;99.90;;;;;;5015982;28;20278;-80
2022/12/31 10:52:54;;;;;;;3.60;0.90;;;10.30;99.90;;;;;;5020874;28;20224;-80
2022/12/31 10:55:54;;;;;;;0.80;0.77;;;10.40;99.90;;;;;;5014609;28;20234;-80
2022/12/31 10:59:09;;;;;;;0.90;0.60;;;10.40;99.90;;;;;;5016336;28;20225;-80
2022/12/31 11:01:47;;;;;;;0.93;0.70;;;10.50;99.90;;;;;;4991227;28;20240;-80
2022/12/31 11:04:50;;;;;;;3.20;0.73;;;10.50;99.90;;;;;;5018100;28;20950;-80
2022/12/31 11:07:37;;;;;;;4.30;0.77;;;10.50;99.90;;;;;;5019367;28;20216;-80
2022/12/31 11:10:46;;;;;;;1.37;0.70;;;10.50;99.90;;;;;;5022992;28;20913;-80
2022/12/31 11:13:53;;;;;;;1.03;0.70;;;10.50;99.90;;;;;;5014623;28;20231;-80
2022/12/31 11:16:37;;;;;;;1.27;0.80;;;10.60;99.90;;;;;;5009420;28;20224;-80
2022/12/31 11:19:18;;;;;;;1.03;0.70;;;10.50;99.90;;;;;;5019592;28;20236;-80
2022/12/31 11:21:57;;;;;;;0.70;0.70;;;10.60;99.90;;;;;;5022193;28;20229;-81
2022/12/31 11:24:36;;;;;;;2.00;0.60;;;10.60;99.90;;;;;;5027357;28;20291;-80
2022/12/31 11:27:17;;;;;;;0.80;0.80;;;10.60;99.90;;;;;;5020618;28;20232;-80
2022/12/31 11:30:17;;;;;;;2.00;0.80;;;10.70;99.90;;;;;;5021148;28;20239;-83
2022/12/31 11:33:02;;;;;;;1.50;1.10;;;10.70;99.90;;;;;;5017065;28;20304;-83
2022/12/31 11:35:39;;;;;;;2.57;0.90;;;10.80;99.90;;;;;;5023935;28;20225;-83
2022/12/31 11:38:17;;;;;;;1.30;0.73;;;10.80;99.90;;;;;;5016695;28;20307;-84
2022/12/31 11:40:54;;;;;;;0.90;0.70;;;10.90;99.90;;;;;;5016892;28;20774;-83
2022/12/31 11:43:30;;;;;;;2.57;1.63;;;10.90;99.90;;;;;;5012657;28;20216;-84
2022/12/31 11:46:18;;;;;;;1.73;1.13;;;11.00;99.90;;;;;;5012467;28;20232;-83
2022/12/31 11:48:57;;;;;;;2.20;1.40;;;11.10;99.90;;;;;;5016419;28;20854;-82
2022/12/31 11:51:42;;;;;;;2.57;2.20;;;11.20;99.90;;;;;;5024027;28;20229;-82
2022/12/31 11:54:49;;;;;;;1.20;1.10;;;11.30;99.90;;;;;;5025250;28;20235;-82
2022/12/31 11:57:24;;;;;;;1.00;0.80;;;11.40;99.90;;;;;;5001374;28;20237;-83
2022/12/31 11:59:54;;;;;;;1.17;1.07;;;11.40;99.90;;;;;;5009729;28;20217;-83
2022/12/31 12:02:26;;;;;;;0.87;0.73;;;11.50;99.90;;;;;;5004363;28;20650;-82
2022/12/31 12:04:55;;;;;;;1.03;0.97;;;11.60;99.90;;;;;;5021210;28;20242;-83
2022/12/31 12:07:23;;;;;;;2.77;1.63;;;11.60;99.90;;;;;;5008003;28;20235;-83
2022/12/31 12:09:52;;;;;;;1.93;1.50;;;11.70;99.90;;;;;;5023921;28;20237;-83
2022/12/31 12:12:18;;;;;;;0.60;0.60;;;11.80;99.90;;;;;;5013123;28;20256;-82
2022/12/31 12:14:51;;;;;;;1.50;0.83;;;11.80;99.90;;;;;;5017957;28;20231;-83
2022/12/31 12:17:31;;;;;;;1.57;0.70;;;11.90;99.90;;;;;;5023892;28;20228;-82
2022/12/31 12:20:01;;;;;;;1.27;0.70;;;12.00;99.90;;;;;;5015958;28;20232;-80
2022/12/31 12:22:30;;;;;;;2.00;1.03;;;12.00;99.90;;;;;;5031621;28;20220;-80
2022/12/31 12:25:01;;;;;;;0.50;0.50;;;12.10;99.90;;;;;;5011962;28;20255;-80
2022/12/31 12:27:33;;;;;;;1.47;0.60;;;12.20;99.90;;;;;;5017187;28;20586;-80
2022/12/31 12:30:09;;;;;;;2.23;0.53;;;12.20;99.90;;;;;;5031295;28;20584;-81
2022/12/31 12:32:37;;;;;;;0.60;0.60;;;12.20;99.90;;;;;;5014457;28;20280;-81
2022/12/31 12:35:14;;;;;;;0.70;0.60;;;12.30;99.90;;;;;;5020530;28;20232;-81
2022/12/31 12:37:41;;;;;;;1.23;0.70;;;12.30;99.90;;;;;;5012547;28;20226;-79
2022/12/31 12:40:19;;;;;;;1.00;0.70;;;12.40;99.90;;;;;;5021801;28;20217;-79
2022/12/31 12:42:53;;;;;;;0.80;0.70;;;12.40;99.90;;;;;;5024866;28;20733;-80
2022/12/31 12:45:21;;;;;;;1.57;1.17;;;12.50;99.90;;;;;;5019499;28;20224;-80
2022/12/31 12:47:54;;;;;;;1.80;1.20;;;12.50;99.90;;;;;;5014631;28;20234;-81
2022/12/31 12:50:24;;;;;;;1.77;0.67;;;12.50;99.90;;;;;;5008312;28;20241;-81
2022/12/31 12:53:03;;;;;;;0.70;0.63;;;12.60;99.90;;;;;;5013959;28;20317;-80
2022/12/31 12:55:40;;;;;;;2.27;0.60;;;12.60;99.90;;;;;;5015507;28;20268;-81
2022/12/31 12:58:17;;;;;;;0.60;0.50;;;12.60;99.90;;;;;;5016229;28;20608;-81
2022/12/31 13:00:51;;;;;;;1.00;0.70;;;12.70;99.90;;;;;;5032590;28;20254;-80
2022/12/31 13:03:49;;;;;;;2.57;0.83;;;12.70;99.90;;;;;;5010879;28;20219;-81
2022/12/31 13:06:36;;;;;;;0.90;0.90;;;12.70;99.90;;;;;;5010007;28;20873;-81
2022/12/31 13:09:19;;;;;;;1.50;1.00;;;12.70;99.90;;;;;;5013112;28;20222;-80
2022/12/31 13:11:57;;;;;;;1.10;0.60;;;12.70;99.90;;;;;;5014210;28;20234;-82
2022/12/31 13:14:32;;;;;;;2.50;1.00;;;12.70;99.90;;;;;;5018267;28;20855;-81
2022/12/31 13:17:07;;;;;;;1.43;1.10;;;12.70;99.90;;;;;;5032713;28;20227;-81
2022/12/31 13:19:46;;;;;;;2.50;1.37;;;12.70;99.90;;;;;;5014946;28;20220;-81
2022/12/31 13:22:19;;;;;;;1.27;0.90;;;12.70;99.90;;;;;;5017645;28;20221;-80
2022/12/31 13:24:53;;;;;;;1.20;0.70;;;12.70;99.90;;;;;;5020684;28;20247;-80
2022/12/31 13:27:24;;;;;;;0.97;0.70;;;12.70;99.90;;;;;;5021010;28;20248;-80
2022/12/31 13:29:58;;;;;;;1.13;0.60;;;12.70;99.90;;;;;;5021137;28;20232;-80
2022/12/31 13:32:32;;;;;;;2.53;1.00;;;12.70;99.90;;;;;;5019388;28;20329;-80
2022/12/31 13:35:07;;;;;;;1.63;1.20;;;12.70;99.90;;;;;;5006935;28;20248;-80
2022/12/31 13:37:41;;;;;;;1.73;1.10;;;12.70;99.90;;;;;;5021921;28;20746;-80